createdAt,value
2019-02-17T00:00:50.465Z,70.00
2019-02-17T00:03:20.422Z,70.50
2019-02-17T00:05:50.384Z,70.20
2019-02-17T00:08:20.261Z,69.90
2019-02-17T00:10:51.130Z,69.70
2019-02-17T00:13:20.915Z,69.70
2019-02-17T00:15:50.874Z,68.90
2019-02-17T00:18:20.842Z,68.60
2019-02-17T00:20:51.741Z,68.60
2019-02-17T00:23:21.731Z,68.20
2019-02-17T00:25:51.636Z,67.80
2019-02-17T00:28:21.569Z,67.60
2019-02-17T00:30:52.351Z,68.20
2019-02-17T00:33:22.240Z,67.50
2019-02-17T00:35:52.407Z,67.50
2019-02-17T00:38:22.306Z,67.50
2019-02-17T00:40:53.192Z,67.50
2019-02-17T00:43:24.150Z,67.50
2019-02-17T00:45:53.939Z,67.40
2019-02-17T00:48:23.875Z,67.30
2019-02-17T00:50:54.872Z,67.30
2019-02-17T00:53:24.663Z,67.40
2019-02-17T00:55:55.473Z,67.20
2019-02-17T00:58:25.462Z,67.20
2019-02-17T01:00:56.998Z,67.30
2019-02-17T01:03:26.766Z,67.30
2019-02-17T01:05:56.729Z,67.40
2019-02-17T01:08:26.502Z,67.40
2019-02-17T01:10:56.391Z,67.50
2019-02-17T01:13:26.310Z,67.40
2019-02-17T01:15:56.184Z,67.30
2019-02-17T01:18:26.169Z,67.00
2019-02-17T01:20:56.047Z,66.70
2019-02-17T01:23:25.987Z,67.00
2019-02-17T01:25:55.933Z,67.10
2019-02-17T01:28:25.813Z,67.30
2019-02-17T01:30:55.769Z,67.20
2019-02-17T01:33:25.536Z,66.90
2019-02-17T01:35:55.492Z,67.10
2019-02-17T01:38:25.296Z,67.10
2019-02-17T01:40:55.161Z,67.00
2019-02-17T01:43:25.045Z,66.90
2019-02-17T01:45:54.895Z,66.70
2019-02-17T01:48:24.783Z,66.70
2019-02-17T01:50:54.667Z,66.90
2019-02-17T01:53:24.636Z,66.80
2019-02-17T01:55:54.412Z,66.80
2019-02-17T01:58:24.399Z,66.70
2019-02-17T02:00:54.273Z,66.50
2019-02-17T02:03:24.259Z,66.50
2019-02-17T02:05:54.050Z,66.30
2019-02-17T02:08:23.977Z,66.30
2019-02-17T02:10:55.012Z,66.50
2019-02-17T02:13:24.927Z,66.40
2019-02-17T02:15:54.803Z,66.50
2019-02-17T02:18:24.658Z,66.90
2019-02-17T02:20:54.659Z,67.20
2019-02-17T02:23:24.809Z,67.30
2019-02-17T02:25:54.694Z,67.30
2019-02-17T02:28:24.651Z,67.20
2019-02-17T02:30:54.620Z,67.40
2019-02-17T02:33:24.487Z,67.40
2019-02-17T02:35:54.477Z,67.20
2019-02-17T02:38:24.443Z,67.30
2019-02-17T02:40:54.439Z,67.30
2019-02-17T02:43:24.389Z,67.30
2019-02-17T02:45:54.454Z,67.10
2019-02-17T02:48:24.307Z,67.60
2019-02-17T02:50:55.249Z,67.40
2019-02-17T02:53:26.096Z,67.50
2019-02-17T02:55:55.986Z,67.60
2019-02-17T02:58:26.850Z,68.20
2019-02-17T03:00:56.817Z,68.60
2019-02-17T03:03:26.662Z,68.50
2019-02-17T03:06:00.970Z,68.80
2019-02-17T03:08:30.815Z,69.00
2019-02-17T03:11:00.675Z,69.30
2019-02-17T03:13:30.466Z,69.20
2019-02-17T03:16:00.423Z,69.30
2019-02-17T03:18:30.361Z,69.40
2019-02-17T03:21:00.308Z,69.60
2019-02-17T03:23:30.095Z,70.00
2019-02-17T03:26:00.022Z,70.20
2019-02-17T03:28:29.874Z,70.30
2019-02-17T03:30:59.688Z,70.60
2019-02-17T03:33:29.643Z,70.90
2019-02-17T03:35:59.520Z,71.30
2019-02-17T03:38:29.492Z,71.80
2019-02-17T03:40:59.367Z,72.30
2019-02-17T03:43:29.247Z,73.20
2019-02-17T03:45:59.034Z,73.90
2019-02-17T03:48:28.972Z,74.60
2019-02-17T03:50:58.957Z,75.00
2019-02-17T03:53:28.926Z,75.10
2019-02-17T03:55:58.823Z,75.30
2019-02-17T03:58:29.685Z,75.20
2019-02-17T04:00:59.681Z,75.20
2019-02-17T04:03:29.542Z,75.00
2019-02-17T04:05:59.530Z,74.90
2019-02-17T04:08:29.483Z,74.90
2019-02-17T04:10:59.394Z,74.90
2019-02-17T04:13:29.356Z,75.00
2019-02-17T04:15:59.235Z,75.10
2019-02-17T04:18:29.182Z,74.90
2019-02-17T04:20:59.135Z,74.90
2019-02-17T04:23:31.603Z,74.90
2019-02-17T04:26:00.499Z,75.10
2019-02-17T04:28:30.384Z,75.20
2019-02-17T04:31:00.357Z,75.60
2019-02-17T04:33:30.302Z,75.90
2019-02-17T04:36:00.203Z,75.90
2019-02-17T04:38:30.156Z,75.80
2019-02-17T04:41:00.030Z,75.70
2019-02-17T04:43:29.893Z,75.10
2019-02-17T04:45:59.663Z,74.40
2019-02-17T04:48:29.577Z,73.90
2019-02-17T04:51:00.378Z,74.00
2019-02-17T04:53:30.341Z,73.80
2019-02-17T04:56:00.134Z,73.70
2019-02-17T04:58:31.055Z,73.50
2019-02-17T05:01:00.943Z,73.20
2019-02-17T05:03:31.018Z,73.00
2019-02-17T05:06:00.893Z,72.60
2019-02-17T05:08:30.865Z,72.60
2019-02-17T05:11:00.732Z,72.00
2019-02-17T05:13:30.590Z,71.80
2019-02-17T05:16:00.354Z,71.20
2019-02-17T05:18:30.276Z,71.20
2019-02-17T05:21:00.143Z,71.20
2019-02-17T05:23:30.118Z,71.20
2019-02-17T05:25:59.967Z,71.20
2019-02-17T05:28:29.804Z,71.50
2019-02-17T05:30:59.730Z,71.60
2019-02-17T05:33:29.684Z,71.50
2019-02-17T05:35:59.679Z,71.60
2019-02-17T05:38:29.620Z,71.70
2019-02-17T05:40:59.510Z,71.30
2019-02-17T05:43:29.447Z,71.00
2019-02-17T05:45:59.321Z,70.70
2019-02-17T05:48:29.497Z,70.20
2019-02-17T05:50:59.469Z,69.80
2019-02-17T05:53:29.351Z,69.20
2019-02-17T05:55:59.307Z,69.40
2019-02-17T05:58:29.091Z,69.20
2019-02-17T06:01:03.967Z,69.20
2019-02-17T06:03:30.550Z,69.20
2019-02-17T06:06:00.324Z,69.20
2019-02-17T06:08:30.256Z,69.10
2019-02-17T06:11:00.060Z,69.30
2019-02-17T06:13:29.986Z,69.20
2019-02-17T06:15:59.844Z,69.40
2019-02-17T06:18:29.696Z,69.40
2019-02-17T06:20:59.624Z,69.50
2019-02-17T06:23:29.499Z,69.80
2019-02-17T06:25:59.464Z,69.70
2019-02-17T06:28:29.346Z,69.60
2019-02-17T06:30:59.234Z,69.70
2019-02-17T06:33:29.119Z,69.60
2019-02-17T06:35:59.177Z,68.80
2019-02-17T06:38:29.104Z,67.90
2019-02-17T06:40:59.043Z,67.00
2019-02-17T06:43:29.073Z,65.90
2019-02-17T06:45:59.131Z,64.40
2019-02-17T06:48:29.176Z,63.10
2019-02-17T06:50:59.049Z,61.30
2019-02-17T06:53:28.963Z,59.80
2019-02-17T06:56:03.104Z,59.00
2019-02-17T06:58:32.998Z,58.60
2019-02-17T07:01:03.840Z,56.90
2019-02-17T07:03:33.631Z,55.80
2019-02-17T07:06:07.996Z,55.30
2019-02-17T07:08:37.890Z,54.50
2019-02-17T07:11:07.851Z,53.80
2019-02-17T07:13:38.315Z,52.90
2019-02-17T07:16:08.971Z,51.90
2019-02-17T07:18:39.480Z,50.70
2019-02-17T07:21:09.926Z,49.30
2019-02-17T07:23:40.415Z,47.60
2019-02-17T07:26:10.935Z,45.70
2019-02-17T07:28:41.351Z,44.50
2019-02-17T07:31:15.402Z,42.40
2019-02-17T07:33:54.791Z,40.90
2019-02-17T07:36:29.041Z,40.40
2019-02-17T07:39:01.131Z,39.00
2019-02-17T07:41:33.223Z,37.40
2019-02-17T07:44:03.582Z,35.90
2019-02-17T07:46:34.124Z,35.60
2019-02-17T07:49:05.707Z,35.00
2019-02-17T07:51:36.172Z,33.90
2019-02-17T07:54:07.840Z,32.50
2019-02-17T07:56:38.321Z,31.90
2019-02-17T07:59:08.849Z,31.00
2019-02-17T08:01:45.301Z,30.10
2019-02-17T08:04:12.208Z,29.60
2019-02-17T08:06:42.665Z,29.00
2019-02-17T08:09:14.199Z,28.20
2019-02-17T08:11:44.664Z,28.00
2019-02-17T08:14:15.857Z,27.80
2019-02-17T08:16:46.880Z,27.20
2019-02-17T08:19:18.695Z,27.20
2019-02-17T08:21:52.669Z,27.20
2019-02-17T08:24:24.304Z,27.10
2019-02-17T08:26:54.674Z,27.40
2019-02-17T08:29:25.186Z,27.60
2019-02-17T08:31:56.276Z,27.60
2019-02-17T08:34:26.853Z,27.70
2019-02-17T08:36:57.328Z,27.30
2019-02-17T08:39:27.899Z,26.60
2019-02-17T08:41:58.267Z,25.80
2019-02-17T08:44:28.717Z,25.60
2019-02-17T08:46:59.084Z,25.10
2019-02-17T08:49:29.562Z,24.50
2019-02-17T08:52:00.929Z,24.10
2019-02-17T08:54:31.557Z,23.50
2019-02-17T08:57:01.969Z,23.30
2019-02-17T08:59:32.858Z,23.40
2019-02-17T09:02:07.291Z,23.20
2019-02-17T09:04:39.457Z,23.00
2019-02-17T09:07:10.149Z,22.90
2019-02-17T09:09:41.780Z,22.90
2019-02-17T09:12:12.225Z,22.70
2019-02-17T09:14:42.767Z,22.40
2019-02-17T09:17:13.221Z,22.60
2019-02-17T09:19:43.784Z,23.20
2019-02-17T09:22:14.131Z,23.00
2019-02-17T09:24:44.360Z,22.90
2019-02-17T09:27:14.801Z,23.30
2019-02-17T09:29:45.320Z,23.50
2019-02-17T09:32:16.602Z,23.20
2019-02-17T09:34:47.543Z,22.90
2019-02-17T09:37:17.999Z,22.70
2019-02-17T09:39:48.464Z,22.20
2019-02-17T09:42:18.812Z,22.70
2019-02-17T09:44:49.260Z,22.40
2019-02-17T09:47:19.605Z,22.30
2019-02-17T09:49:50.057Z,22.40
2019-02-17T09:52:20.415Z,22.10
2019-02-17T09:54:50.976Z,22.30
2019-02-17T09:57:21.336Z,22.00
2019-02-17T09:59:51.842Z,22.10
2019-02-17T10:02:26.542Z,22.20
2019-02-17T10:04:55.258Z,22.40
2019-02-17T10:10:17.351Z,22.50
2019-02-17T10:15:19.506Z,22.80
2019-02-17T10:17:50.041Z,22.90
2019-02-17T10:20:20.720Z,23.80
2019-02-17T10:22:51.227Z,24.90
2019-02-17T10:26:00.670Z,25.80
2019-02-17T10:37:12.061Z,33.10
2019-02-17T10:39:42.736Z,34.20
2019-02-17T10:42:13.338Z,35.50
2019-02-17T10:44:43.787Z,36.90
2019-02-17T10:47:14.255Z,37.90
2019-02-17T10:49:44.652Z,39.10
2019-02-17T10:52:16.225Z,40.50
2019-02-17T10:54:47.034Z,40.60
2019-02-17T10:57:17.932Z,40.70
2019-02-17T10:59:49.700Z,41.20
2019-02-17T11:02:22.421Z,41.50
2019-02-17T11:04:53.645Z,41.50
2019-02-17T11:07:24.347Z,41.70
2019-02-17T11:09:55.838Z,42.20
2019-02-17T11:12:26.372Z,43.20
2019-02-17T11:14:57.180Z,42.80
2019-02-17T11:17:27.768Z,42.80
2019-02-17T11:19:59.124Z,43.70
2019-02-17T11:22:29.724Z,42.70
2019-02-17T11:25:00.334Z,42.90
2019-02-17T11:27:30.945Z,43.60
2019-02-17T11:30:01.463Z,43.50
2019-02-17T11:32:32.364Z,44.10
2019-02-17T11:35:03.909Z,44.50
2019-02-17T11:37:35.462Z,44.60
2019-02-17T11:40:09.375Z,44.80
2019-02-17T11:42:40.295Z,45.00
2019-02-17T11:45:13.901Z,44.00
2019-02-17T11:47:45.863Z,44.30
2019-02-17T11:50:17.096Z,44.50
2019-02-17T11:52:48.026Z,44.10
2019-02-17T11:58:43.285Z,44.30
2019-02-17T12:01:13.884Z,44.20
2019-02-17T12:03:44.388Z,44.10
2019-02-17T12:06:14.923Z,44.30
2019-02-17T12:08:47.413Z,44.00
2019-02-17T12:11:17.968Z,43.80
2019-02-17T12:13:48.456Z,44.00
2019-02-17T12:16:19.008Z,44.70
2019-02-17T12:18:49.617Z,44.00
2019-02-17T12:21:38.026Z,44.00
2019-02-17T12:24:12.942Z,43.90
2019-02-17T12:27:02.146Z,43.90
2019-02-17T12:29:35.323Z,44.50
2019-02-17T12:32:05.758Z,44.30
2019-02-17T12:34:36.387Z,44.10
2019-02-17T12:37:06.801Z,44.50
2019-02-17T12:39:37.393Z,44.40
2019-02-17T12:42:07.835Z,44.10
2019-02-17T12:44:38.421Z,43.40
2019-02-17T12:47:08.810Z,43.00
2019-02-17T12:49:39.474Z,43.20
2019-02-17T12:52:09.960Z,43.60
2019-02-17T12:54:40.517Z,43.50
2019-02-17T12:57:11.006Z,42.90
2019-02-17T12:59:41.675Z,42.30
2019-02-17T13:02:12.191Z,43.20
2019-02-17T13:04:42.680Z,42.00
2019-02-17T13:07:13.290Z,42.10
2019-02-17T13:09:44.868Z,42.40
2019-02-17T13:12:15.355Z,42.70
2019-02-17T13:14:45.941Z,41.90
2019-02-17T13:17:16.400Z,41.70
2019-02-17T13:19:47.020Z,42.10
2019-02-17T13:22:17.587Z,42.50
2019-02-17T13:24:48.157Z,42.40
2019-02-17T13:27:18.744Z,42.10
2019-02-17T13:29:49.324Z,42.30
2019-02-17T13:32:19.868Z,42.30
2019-02-17T13:34:50.238Z,42.50
2019-02-17T13:37:20.777Z,42.70
2019-02-17T13:39:51.236Z,42.30
2019-02-17T13:42:21.710Z,41.60
2019-02-17T13:44:52.171Z,41.40
2019-02-17T13:47:22.662Z,41.30
2019-02-17T13:49:53.166Z,40.90
2019-02-17T13:52:23.825Z,41.10
2019-02-17T13:54:57.044Z,41.50
2019-02-17T13:57:27.513Z,41.70
2019-02-17T13:59:58.032Z,41.90
2019-02-17T14:02:28.705Z,41.60
2019-02-17T14:04:59.179Z,41.60
2019-02-17T14:07:29.804Z,41.40
2019-02-17T14:10:01.264Z,41.60
2019-02-17T14:12:31.930Z,41.30
2019-02-17T14:15:02.499Z,41.30
2019-02-17T14:17:33.086Z,41.40
2019-02-17T14:20:07.826Z,40.90
2019-02-17T14:22:38.463Z,41.10
2019-02-17T14:25:10.994Z,41.20
2019-02-17T14:27:41.980Z,41.10
2019-02-17T14:30:14.449Z,41.20
2019-02-17T14:32:45.087Z,41.40
2019-02-17T14:35:15.672Z,41.80
2019-02-17T14:37:46.596Z,42.00
2019-02-17T14:40:17.117Z,42.20
2019-02-17T14:42:47.773Z,42.20
2019-02-17T17:13:31.885Z,49.10
2019-02-17T17:16:02.833Z,49.30
2019-02-17T17:18:33.807Z,49.50
2019-02-17T17:21:04.716Z,49.60
2019-02-17T17:23:35.702Z,49.80
2019-02-17T17:26:06.635Z,49.80
2019-02-17T17:28:37.587Z,49.70
2019-02-17T17:31:08.428Z,49.60
2019-02-17T17:33:39.502Z,49.60
2019-02-17T17:36:10.653Z,49.40
2019-02-17T17:38:41.737Z,49.40
2019-02-17T17:41:12.675Z,49.40
2019-02-17T17:43:43.701Z,49.60
2019-02-17T17:46:15.660Z,50.00
2019-02-17T17:48:46.838Z,50.10
2019-02-17T17:51:17.759Z,50.20
2019-02-17T17:53:48.824Z,50.30
2019-02-17T17:56:19.873Z,50.50
2019-02-17T17:58:53.456Z,50.60
2019-02-17T18:01:24.243Z,50.70
2019-02-17T18:03:55.260Z,50.90
2019-02-17T18:06:26.110Z,51.10
2019-02-17T18:08:59.279Z,51.50
2019-02-17T18:11:30.216Z,52.30
2019-02-17T18:14:01.314Z,52.40
2019-02-17T18:16:32.499Z,52.70
2019-02-17T18:19:04.690Z,53.00
2019-02-17T18:21:35.759Z,53.40
2019-02-17T18:24:06.834Z,53.60
2019-02-17T18:26:37.903Z,53.70
2019-02-17T18:29:10.889Z,53.70
2019-02-17T18:31:41.837Z,53.90
2019-02-17T18:34:15.186Z,53.90
2019-02-17T18:56:41.904Z,54.90
2019-02-17T19:02:02.232Z,55.90
2019-02-17T19:04:33.291Z,56.30
2019-02-17T19:07:04.465Z,56.50
2019-02-17T19:09:36.422Z,56.70
2019-02-17T19:12:07.551Z,56.80
2019-02-17T19:14:37.864Z,57.00
2019-02-17T19:23:40.633Z,57.40
2019-02-17T19:26:11.221Z,57.50
2019-02-17T19:28:41.597Z,57.60
2019-02-17T19:31:12.560Z,57.80
2019-02-17T19:33:43.040Z,58.00
2019-02-17T19:36:14.000Z,58.30
2019-02-17T19:38:44.417Z,58.70
2019-02-17T19:41:15.260Z,58.90
2019-02-17T19:43:45.722Z,58.90
2019-02-17T19:46:16.041Z,59.20
2019-02-17T19:48:46.476Z,59.60
2019-02-17T19:51:16.695Z,59.90
2019-02-17T19:53:47.657Z,60.10
2019-02-17T19:56:17.963Z,59.90
2019-02-17T19:59:05.050Z,59.80
2019-02-17T20:01:38.961Z,59.50
2019-02-17T20:04:10.997Z,59.30
2019-02-17T20:06:41.347Z,59.70
2019-02-17T20:09:15.535Z,59.90
2019-02-17T21:03:46.547Z,62.00
2019-02-17T21:06:18.360Z,62.10
2019-02-17T21:09:08.738Z,62.10
2019-02-17T21:11:39.114Z,62.20
2019-02-17T21:24:18.267Z,62.50
2019-02-17T21:44:44.899Z,62.40
2019-02-17T21:47:14.763Z,62.20
2019-02-17T21:49:45.702Z,62.20
2019-02-17T21:52:15.716Z,62.20
2019-02-17T21:54:45.611Z,62.50
2019-02-17T21:57:15.577Z,62.40
2019-02-17T21:59:46.495Z,62.30
2019-02-17T22:02:16.377Z,62.40
2019-02-17T22:04:46.249Z,62.50
2019-02-17T22:07:16.237Z,62.50
2019-02-17T22:09:47.214Z,62.50
2019-02-17T22:12:17.143Z,62.60
2019-02-17T22:14:47.187Z,62.80
2019-02-17T22:17:17.032Z,63.20
2019-02-17T22:19:47.896Z,63.20
2019-02-17T22:22:17.768Z,63.10
2019-02-17T22:31:21.607Z,63.20
